Airfield :







YOU CAN JOIN US ON...

 
LOGIN :

Register | Disclaimer

   EN    FR    IT 

 









Legend :    VFR   Marginal VFR   IFR   Intensive IFR   Very Intensive IFR
Visi :
Ceiling :
>= 8 km
>= 3000ft
5 to 8 km
1000 to 3000 ft
1500m to 5 km
500 to 1000 ft
800 to 1500m
200 to 500 ft
< 800m
< 200 ft
Symbols :   Thunderstorms  Fog  Heavy snow  Heavy precipitations  Wind > 20 kt






- Airport Elevation : 6 ft
- IATA code : AEY


BIAR - Akureyri

CURRENT METAR :
  • 070900Z 15005KT 9999 FEW006 BKN012 OVC025 01/01 Q1000

EXPIRED METARs :
  • 070800Z 18002KT 9999 FEW004 BKN009 OVC030 01/01 Q1000
  • 070700Z 17004KT 9000 DZ BR SCT006 OVC025 01/00 Q0999

TAF TAF BIAR
Valid from the 07 at 09:00 until the 08 at 09:00 UTC


070712Z 0709/0809 34008KT 9999 -RA SCT015 BKN022 TX04/0715Z TN00/0803Z
TEMPO 0709/0714 RA BKN010
BECMG 0802/0804 10008KT SCT040



MET'MAP, your aeronautical weather chart ! - Copyright ORBIFLY December 2007 - Disclaimer

ORBIFLY MET'MAP TEAM :

Programming & Development : Alexandra Zaïnal
Original concept : Baudouin d'Aumeries
Technical & hardware support : Manuel Goepfert
Assistance : Marc-Olivier Méhu




SOURCES & CREDITS :

   NOAA